createdAt,value
2022-09-27T00:04:26.114Z,119
2022-09-27T00:09:27.697Z,114.63712
2022-09-27T00:14:29.309Z,138.32177
2022-09-27T00:19:30.991Z,135.30435
2022-09-27T00:24:32.740Z,116.06704
2022-09-27T00:29:34.342Z,119
2022-09-27T00:34:35.984Z,104.41667
2022-09-27T00:39:37.621Z,113.23077
2022-09-27T00:44:39.226Z,98.77387
2022-09-27T00:49:40.840Z,77.33333
2022-09-27T00:54:42.485Z,68.44444
2022-09-27T00:59:44.142Z,62.46154
2022-09-27T01:04:45.803Z,62.46154
2022-09-27T01:09:47.408Z,78.79212
2022-09-27T01:14:48.987Z,75.34328
2022-09-27T01:19:50.600Z,67.2
2022-09-27T01:24:52.290Z,70.48871
2022-09-27T01:29:53.900Z,71.27273
2022-09-27T01:34:55.480Z,67.69478
2022-09-27T01:39:57.110Z,62.23417
2022-09-27T01:44:58.727Z,60.00753
2022-09-27T01:50:00.417Z,60.00753
2022-09-27T01:55:02.048Z,65.49901
2022-09-27T02:00:03.675Z,69.45825
2022-09-27T02:05:05.276Z,68.94929
2022-09-27T02:10:06.919Z,70.48871
2022-09-27T02:15:08.572Z,73.68421
2022-09-27T02:20:10.174Z,88.94118
2022-09-27T02:25:11.799Z,87.58974
2022-09-27T02:30:13.421Z,73.95781
2022-09-27T02:35:15.024Z,77.91304
2022-09-27T02:40:16.721Z,70.22951
2022-09-27T02:45:18.409Z,65.73913
2022-09-27T02:50:19.991Z,72.06653
2022-09-27T02:55:21.614Z,80.28319
2022-09-27T03:00:23.229Z,96.8536
2022-09-27T03:05:24.864Z,104.41667
2022-09-27T03:10:26.497Z,128.43114
2022-09-27T03:15:28.171Z,116.54902
2022-09-27T03:20:29.812Z,98.77387
2022-09-27T03:25:31.432Z,87.25581
2022-09-27T03:30:33.100Z,79.98234
2022-09-27T03:35:34.755Z,74.23256
2022-09-27T03:40:36.646Z,89.97156
2022-09-27T03:45:38.316Z,106.96296
2022-09-27T03:50:39.923Z,89.97156
2022-09-27T03:55:41.570Z,84
2022-09-27T04:00:43.144Z,77.04536
2022-09-27T04:05:44.745Z,75.90578
2022-09-27T04:10:46.363Z,77.62256
2022-09-27T04:15:52.012Z,70.74897
2022-09-27T04:20:54.406Z,74.23256
2022-09-27T04:25:56.012Z,78.49782
2022-09-27T04:30:57.711Z,87.58974
2022-09-27T04:35:59.427Z,106.10526
2022-09-27T04:41:01.138Z,82.11659
2022-09-27T04:46:02.909Z,80.28319
2022-09-27T04:51:05.263Z,77.33333
2022-09-27T04:56:07.003Z,71.80083
2022-09-27T05:01:08.690Z,69.45825
2022-09-27T05:06:10.322Z,71.80083
2022-09-27T05:11:11.901Z,69.71429
2022-09-27T05:16:13.541Z,71.27273
2022-09-27T05:21:15.265Z,71.01031
2022-09-27T05:26:16.922Z,81.5
2022-09-27T05:31:18.606Z,107.82979
2022-09-27T05:36:20.435Z,109.5914
2022-09-27T05:41:22.777Z,121.01149
2022-09-27T05:46:24.646Z,92.43373
2022-09-27T05:51:26.240Z,84.31891
2022-09-27T05:56:27.980Z,75.62393
2022-09-27T06:01:29.655Z,76.47312
2022-09-27T06:06:31.278Z,112.30601
2022-09-27T06:11:32.884Z,91.72182
2022-09-27T06:16:34.472Z,81.80761
2022-09-27T06:21:36.052Z,99.16373
2022-09-27T06:26:37.595Z,113.69697
2022-09-27T06:31:39.168Z,116.06704
2022-09-27T06:36:40.719Z,124.64516
2022-09-27T06:41:42.264Z,138.32177
2022-09-27T06:46:43.834Z,107.39523
2022-09-27T06:51:45.476Z,109.14745
2022-09-27T06:56:47.151Z,88.94118
2022-09-27T07:01:48.762Z,81.5
2022-09-27T07:06:50.344Z,83.36652
2022-09-27T07:11:51.937Z,77.62256
2022-09-27T07:16:53.603Z,73.14046
2022-09-27T07:21:55.225Z,80.58537
2022-09-27T07:26:56.837Z,77.62256
2022-09-27T07:31:58.410Z,73.68421
2022-09-27T07:36:59.957Z,74.78556
2022-09-27T07:42:01.553Z,76.47312
2022-09-27T07:47:03.141Z,72.33333
2022-09-27T07:52:04.766Z,74.50847
2022-09-27T07:57:06.369Z,83.36652
2022-09-27T08:02:08.005Z,89.28302
2022-09-27T08:07:13.706Z,91.72182
2022-09-27T08:12:16.023Z,86.26328
2022-09-27T08:17:17.601Z,88.60094
2022-09-27T08:22:19.245Z,84.63927
2022-09-27T08:27:20.908Z,82.11659
2022-09-27T08:32:23.605Z,81.19376
2022-09-27T08:37:25.351Z,85.6092
2022-09-27T08:42:26.966Z,84.31891
2022-09-27T08:47:28.545Z,80.88889
2022-09-27T08:52:30.124Z,82.11659
2022-09-27T08:57:31.737Z,86.26328
2022-09-27T09:02:33.427Z,99.55556
2022-09-27T09:07:35.047Z,90.31829
2022-09-27T09:12:36.786Z,98.38596
2022-09-27T09:17:38.406Z,94.61125
2022-09-27T09:22:40.018Z,94.98039
2022-09-27T09:27:41.689Z,92.79227
2022-09-27T09:32:43.304Z,85.6092
2022-09-27T09:37:44.958Z,85.2844
2022-09-27T09:42:46.556Z,91.01671
2022-09-27T09:47:48.176Z,98.77387
2022-09-27T09:52:49.779Z,106.10526
2022-09-27T09:57:51.365Z,112.76712
2022-09-27T10:02:52.930Z,116.06704
2022-09-27T10:07:54.559Z,101.94872
2022-09-27T10:12:56.151Z,106.10526
2022-09-27T10:17:57.760Z,112.76712
2022-09-27T10:22:59.376Z,98.38596
2022-09-27T10:28:00.991Z,100.743
2022-09-27T10:33:02.582Z,87.58974
2022-09-27T10:38:04.167Z,83.36652
2022-09-27T10:43:05.805Z,85.93548
2022-09-27T10:48:07.489Z,86.26328
2022-09-27T10:53:09.101Z,94.61125
2022-09-27T10:58:10.727Z,93.87835
2022-09-27T11:03:12.580Z,91.36842
2022-09-27T11:08:14.233Z,84.31891
2022-09-27T11:13:15.850Z,80.88889
2022-09-27T11:18:17.476Z,77.04536
2022-09-27T11:23:19.051Z,70.48871
2022-09-27T11:28:20.635Z,68.94929
2022-09-27T11:33:22.207Z,69.97137
2022-09-27T11:38:48.076Z,72.33333
2022-09-27T11:43:53.659Z,71.53623
2022-09-27T11:48:55.381Z,69.45825
2022-09-27T11:53:56.972Z,67.69478
2022-09-27T11:58:58.713Z,66.22222
2022-09-27T12:04:00.346Z,66.22222
2022-09-27T12:09:02.043Z,66.22222
2022-09-27T12:14:03.627Z,66.70916
2022-09-27T12:19:05.235Z,68.44444
2022-09-27T12:24:06.812Z,71.80083
2022-09-27T12:29:08.400Z,70.48871
2022-09-27T12:34:10.021Z,69.20325
2022-09-27T12:39:11.683Z,68.19355
2022-09-27T12:44:13.492Z,68.44444
2022-09-27T12:49:15.366Z,68.44444
2022-09-27T12:54:17.266Z,66.95409
2022-09-27T12:59:18.869Z,66.95409
2022-09-27T13:04:20.470Z,69.45825
2022-09-27T13:09:22.127Z,70.22951
2022-09-27T13:14:23.747Z,70.48871
2022-09-27T13:19:27.210Z,69.97137
2022-09-27T13:24:28.940Z,68.44444
2022-09-27T13:29:30.590Z,67.69478
2022-09-27T13:34:32.184Z,67.44689
2022-09-27T13:39:33.787Z,70.48871
2022-09-27T13:44:35.421Z,68.19355
2022-09-27T13:49:37.022Z,66.95409
2022-09-27T13:54:38.582Z,66.70916
2022-09-27T13:59:40.217Z,66.22222
2022-09-27T14:04:41.800Z,66.22222
2022-09-27T14:09:43.400Z,65.73913
2022-09-27T14:14:45.058Z,67.69478
2022-09-27T14:19:46.663Z,68.69636
2022-09-27T14:24:48.247Z,67.94366
2022-09-27T14:29:49.834Z,66.95409
2022-09-27T14:34:51.423Z,67.44689
2022-09-27T14:39:53.050Z,66.70916
2022-09-27T14:44:54.634Z,66.46521
2022-09-27T14:49:56.251Z,65.49901
2022-09-27T14:54:57.854Z,65.73913
2022-09-27T14:59:59.444Z,77.04536
2022-09-27T15:05:01.103Z,87.25581
2022-09-27T15:10:02.750Z,83.36652
2022-09-27T15:15:04.357Z,88.60094
2022-09-27T15:20:05.989Z,84.63927
2022-09-27T15:25:07.695Z,90.66667
2022-09-27T15:30:09.987Z,93.15254
2022-09-27T15:35:11.562Z,91.72182
2022-09-27T15:40:13.147Z,96.09877
2022-09-27T15:45:14.757Z,98
2022-09-27T15:50:16.326Z,109.5914
2022-09-27T15:55:17.930Z,98.77387
2022-09-27T16:00:19.620Z,99.55556
2022-09-27T16:05:21.217Z,97.23383
2022-09-27T16:10:22.989Z,100.743
2022-09-27T16:15:24.572Z,101.54476
2022-09-27T16:20:26.200Z,96.8536
2022-09-27T16:25:27.838Z,113.23077
2022-09-27T16:30:29.424Z,114.63712
2022-09-27T16:35:31.023Z,131.23404
2022-09-27T16:40:32.698Z,120
2022-09-27T16:45:34.292Z,117.52113
2022-09-27T16:50:35.935Z,127.33333
2022-09-27T16:55:37.508Z,126.78932
2022-09-27T17:00:39.099Z,130.66667
2022-09-27T17:05:40.763Z,136.5
2022-09-27T17:10:42.377Z,133.53846
2022-09-27T17:15:44.011Z,125.71091
2022-09-27T17:20:45.673Z,128.98498
2022-09-27T17:25:47.332Z,160.14035
2022-09-27T17:30:49.060Z,156.41379
2022-09-27T17:35:50.663Z,138.93671
2022-09-27T17:40:52.288Z,150.02007
2022-09-27T17:45:53.950Z,162.43972
2022-09-27T17:50:55.617Z,180.92308
2022-09-27T17:55:57.234Z,186.51969
2022-09-27T18:01:00.990Z,185.56863
2022-09-27T18:06:02.845Z,192.3871
2022-09-27T18:11:04.491Z,202.82353
2022-09-27T18:16:06.173Z,203.91561
2022-09-27T18:21:07.845Z,212.99563
2022-09-27T18:26:09.424Z,198.54545
2022-09-27T18:31:11.170Z,161.66784
2022-09-27T18:36:12.787Z,117.03371
2022-09-27T18:41:14.441Z,126.78932
2022-09-27T18:46:34.490Z,114.16575
2022-09-27T18:51:37.841Z,135.90031
2022-09-27T18:56:39.767Z,140.80511
2022-09-27T19:01:41.444Z,132.3792
2022-09-27T19:06:43.092Z,138.93671
2022-09-27T19:11:44.676Z,145.30719
2022-09-27T19:16:46.339Z,185.56863
2022-09-27T19:21:47.970Z,167.18841
2022-09-27T19:26:49.610Z,188.44444
2022-09-27T19:31:51.391Z,170.47059
2022-09-27T19:36:53.070Z,198.54545
2022-09-27T19:41:54.699Z,161.66784
2022-09-27T19:46:56.451Z,174.71161
2022-09-27T19:51:58.111Z,185.56863
2022-09-27T19:56:59.699Z,183.68872
2022-09-27T20:02:01.402Z,184.625
2022-09-27T20:07:03.052Z,160.14035
2022-09-27T20:12:04.708Z,157.14879
2022-09-27T20:17:06.397Z,146.63158
2022-09-27T20:22:08.027Z,148.65116
2022-09-27T20:27:09.613Z,149.33333
2022-09-27T20:32:27.290Z,175.57895
2022-09-27T20:37:29.434Z,216.56637
2022-09-27T20:42:31.129Z,203.91561
2022-09-27T20:47:32.780Z,208.37768
2022-09-27T20:52:34.443Z,205.01695
2022-09-27T20:57:56.321Z,198.54545
2022-09-27T21:02:59.361Z,212.99563
2022-09-27T21:08:00.990Z,230.51163
2022-09-27T21:13:02.603Z,226.56881
2022-09-27T21:18:04.189Z,238.73684
2022-09-27T21:23:05.833Z,241.58454
2022-09-27T21:28:07.384Z,248.9505
2022-09-27T21:33:08.975Z,266.51309
2022-09-27T21:38:10.594Z,269.92593
2022-09-27T21:43:12.265Z,349.26316
2022-09-27T21:48:13.932Z,258.28571
2022-09-27T21:53:15.549Z,296
2022-09-27T21:58:17.159Z,230.51163
2022-09-27T22:03:18.782Z,188.44444
2022-09-27T22:08:20.370Z,196.45902
2022-09-27T22:13:21.971Z,175.57895
2022-09-27T22:18:23.558Z,202.82353
2022-09-27T22:23:25.187Z,217.77778
2022-09-27T22:28:26.811Z,199.60166
2022-09-27T22:33:28.476Z,207.24786
2022-09-27T22:38:30.122Z,225.27854
2022-09-27T22:43:31.727Z,230.51163
2022-09-27T22:48:33.364Z,206.12766
2022-09-27T22:53:34.983Z,177.33333
2022-09-27T22:58:36.893Z,172.99628
2022-09-27T23:03:38.609Z,176.45283
2022-09-27T23:08:40.217Z,163.21708
2022-09-27T23:13:41.835Z,156.41379
2022-09-27T23:18:43.487Z,181.83784
2022-09-27T23:23:45.150Z,154.23891
2022-09-27T23:28:46.812Z,173.85075
2022-09-27T23:33:48.413Z,144.65147
2022-09-27T23:38:50.026Z,144.65147
2022-09-27T23:43:51.655Z,135.90031
2022-09-27T23:48:53.253Z,132.3792
2022-09-27T23:53:54.878Z,125.17647
2022-09-27T23:58:56.453Z,137.71069
